createdAt,value
2022-09-10T00:00:02.598Z,0.00
2022-09-10T00:01:02.591Z,0.00
2022-09-10T00:02:02.597Z,0.00
2022-09-10T00:03:02.551Z,0.00
2022-09-10T00:04:02.562Z,0.00
2022-09-10T00:05:02.507Z,0.00
2022-09-10T00:06:02.490Z,0.00
2022-09-10T00:07:02.471Z,0.00
2022-09-10T00:08:02.449Z,0.00
2022-09-10T00:09:02.501Z,0.00
2022-09-10T00:10:02.454Z,0.00
2022-09-10T00:11:02.445Z,0.00
2022-09-10T00:12:02.394Z,0.00
2022-09-10T00:13:02.410Z,0.00
2022-09-10T00:14:02.399Z,0.00
2022-09-10T00:15:02.360Z,0.00
2022-09-10T00:16:02.448Z,0.00
2022-09-10T00:17:02.326Z,0.00
2022-09-10T00:18:02.383Z,0.00
2022-09-10T00:19:02.319Z,0.00
2022-09-10T00:20:02.311Z,0.00
2022-09-10T00:21:02.274Z,0.00
2022-09-10T00:22:03.195Z,0.00
2022-09-10T00:23:02.244Z,0.00
2022-09-10T00:24:02.263Z,0.00
2022-09-10T00:25:06.233Z,0.00
2022-09-10T00:26:02.224Z,0.00
2022-09-10T00:27:02.214Z,0.00
2022-09-10T00:28:02.200Z,0.00
2022-09-10T00:29:02.215Z,0.00
2022-09-10T00:30:02.897Z,0.00
2022-09-10T00:31:02.182Z,0.00
2022-09-10T00:32:02.165Z,0.00
2022-09-10T00:33:02.146Z,0.00
2022-09-10T00:34:02.117Z,0.00
2022-09-10T00:35:02.162Z,0.00
2022-09-10T00:36:02.094Z,0.00
2022-09-10T00:37:02.071Z,0.00
2022-09-10T00:38:02.079Z,0.00
2022-09-10T00:39:02.043Z,0.00
2022-09-10T00:40:02.087Z,0.00
2022-09-10T00:41:02.035Z,0.00
2022-09-10T00:42:02.027Z,0.00
2022-09-10T00:43:01.988Z,0.00
2022-09-10T00:44:01.991Z,0.00
2022-09-10T00:45:01.958Z,0.00
2022-09-10T00:46:01.990Z,0.00
2022-09-10T00:47:01.960Z,0.00
2022-09-10T00:48:02.028Z,0.00
2022-09-10T00:49:01.918Z,0.00
2022-09-10T00:50:01.924Z,0.00
2022-09-10T00:51:01.914Z,0.00
2022-09-10T00:52:01.883Z,0.00
2022-09-10T00:53:01.848Z,0.00
2022-09-10T00:54:01.857Z,0.00
2022-09-10T00:55:01.823Z,0.00
2022-09-10T00:56:01.826Z,0.00
2022-09-10T00:57:01.803Z,0.00
2022-09-10T00:58:01.793Z,0.00
2022-09-10T00:59:01.888Z,0.00
2022-09-10T01:00:01.765Z,0.00
2022-09-10T01:01:01.975Z,0.00
2022-09-10T01:02:01.773Z,0.00
2022-09-10T01:03:01.731Z,0.00
2022-09-10T01:04:01.727Z,0.00
2022-09-10T01:05:01.705Z,0.00
2022-09-10T01:06:01.678Z,0.00
2022-09-10T01:07:01.675Z,0.00
2022-09-10T01:08:01.664Z,0.00
2022-09-10T01:09:01.666Z,0.00
2022-09-10T01:10:01.638Z,0.00
2022-09-10T01:11:01.634Z,0.00
2022-09-10T01:12:03.770Z,0.00
2022-09-10T01:13:01.614Z,0.00
2022-09-10T01:14:01.584Z,0.00
2022-09-10T01:15:01.662Z,0.00
2022-09-10T01:16:01.622Z,0.00
2022-09-10T01:17:01.544Z,0.00
2022-09-10T01:18:01.524Z,0.00
2022-09-10T01:19:01.510Z,0.00
2022-09-10T01:20:01.538Z,0.00
2022-09-10T01:21:01.487Z,0.00
2022-09-10T01:22:01.490Z,0.00
2022-09-10T01:23:01.458Z,0.00
2022-09-10T01:24:01.451Z,0.00
2022-09-10T01:25:01.437Z,0.00
2022-09-10T01:26:01.406Z,0.00
2022-09-10T01:27:01.423Z,0.00
2022-09-10T01:28:01.403Z,0.00
2022-09-10T01:29:01.396Z,0.00
2022-09-10T01:30:01.366Z,0.00
2022-09-10T01:31:01.369Z,0.00
2022-09-10T01:32:01.354Z,0.00
2022-09-10T01:33:01.341Z,0.00
2022-09-10T01:34:01.353Z,0.00
2022-09-10T01:35:01.284Z,0.00
2022-09-10T01:36:01.321Z,0.00
2022-09-10T01:37:01.293Z,0.00
2022-09-10T01:38:01.244Z,0.00
2022-09-10T01:39:01.233Z,0.00
2022-09-10T01:40:01.260Z,0.00
2022-09-10T01:41:01.209Z,0.00
2022-09-10T01:42:01.217Z,0.00
2022-09-10T01:43:01.175Z,0.00
2022-09-10T01:44:01.240Z,0.00
2022-09-10T01:45:01.185Z,0.00
2022-09-10T01:46:01.247Z,0.00
2022-09-10T01:47:01.150Z,0.00
2022-09-10T01:48:01.138Z,0.00
2022-09-10T01:49:01.330Z,0.00
2022-09-10T01:50:01.114Z,0.00
2022-09-10T01:51:01.094Z,0.00
2022-09-10T01:52:01.064Z,0.00
2022-09-10T01:53:01.060Z,0.00
2022-09-10T01:54:01.071Z,0.00
2022-09-10T01:55:01.054Z,0.00
2022-09-10T01:56:01.003Z,0.00
2022-09-10T01:57:01.086Z,0.00
2022-09-10T01:58:00.992Z,0.00
2022-09-10T01:59:00.961Z,0.00
2022-09-10T02:00:00.954Z,0.00
2022-09-10T02:01:01.028Z,0.00
2022-09-10T02:02:01.028Z,0.00
2022-09-10T02:03:00.934Z,0.00
2022-09-10T02:04:00.943Z,0.00
2022-09-10T02:05:00.888Z,0.00
2022-09-10T02:06:00.877Z,0.00
2022-09-10T02:07:00.903Z,0.00
2022-09-10T02:08:00.859Z,0.00
2022-09-10T02:09:00.841Z,0.00
2022-09-10T02:10:00.862Z,0.00
2022-09-10T02:11:00.887Z,0.00
2022-09-10T02:12:00.786Z,0.00
2022-09-10T02:13:00.813Z,0.00
2022-09-10T02:14:00.781Z,0.00
2022-09-10T02:15:00.834Z,0.00
2022-09-10T02:16:00.802Z,0.00
2022-09-10T02:17:00.734Z,0.00
2022-09-10T02:18:00.708Z,0.00
2022-09-10T02:19:01.309Z,0.00
2022-09-10T02:20:00.705Z,0.00
2022-09-10T02:21:00.730Z,0.00
2022-09-10T02:22:00.671Z,0.00
2022-09-10T02:23:00.668Z,0.00
2022-09-10T02:24:00.638Z,0.00
2022-09-10T02:25:00.624Z,0.00
2022-09-10T02:26:00.631Z,0.00
2022-09-10T02:27:00.631Z,0.00
2022-09-10T02:28:00.624Z,0.00
2022-09-10T02:29:00.567Z,0.00
2022-09-10T02:30:00.563Z,0.00
2022-09-10T02:31:01.336Z,0.00
2022-09-10T02:32:00.543Z,0.00
2022-09-10T02:33:00.541Z,0.00
2022-09-10T02:34:00.531Z,0.00
2022-09-10T02:35:00.508Z,0.00
2022-09-10T02:36:00.476Z,0.00
2022-09-10T02:37:00.474Z,0.00
2022-09-10T02:38:00.482Z,0.00
2022-09-10T02:39:00.449Z,0.00
2022-09-10T02:40:00.523Z,0.00
2022-09-10T02:41:00.447Z,0.00
2022-09-10T02:42:00.419Z,0.00
2022-09-10T02:43:00.417Z,0.00
2022-09-10T02:44:00.383Z,0.00
2022-09-10T02:45:00.372Z,0.00
2022-09-10T02:46:00.467Z,0.00
2022-09-10T02:47:00.365Z,0.00
2022-09-10T02:48:00.324Z,0.00
2022-09-10T02:49:00.317Z,0.00
2022-09-10T02:50:00.294Z,0.00
2022-09-10T02:51:00.276Z,0.00
2022-09-10T02:52:00.317Z,0.00
2022-09-10T02:53:00.256Z,0.00
2022-09-10T02:54:00.262Z,0.00
2022-09-10T02:55:00.226Z,0.00
2022-09-10T02:56:00.207Z,0.00
2022-09-10T02:57:00.816Z,0.00
2022-09-10T02:58:00.195Z,0.00
2022-09-10T02:59:00.216Z,0.00
2022-09-10T03:00:00.180Z,0.00
2022-09-10T03:01:00.214Z,0.00
2022-09-10T03:02:00.221Z,0.00
2022-09-10T03:03:03.057Z,0.00
2022-09-10T03:04:00.103Z,0.00
2022-09-10T03:05:00.126Z,0.00
2022-09-10T03:06:00.091Z,0.00
2022-09-10T03:07:00.134Z,0.00
2022-09-10T03:08:00.050Z,0.00
2022-09-10T03:09:00.068Z,0.00
2022-09-10T03:10:00.020Z,0.00
2022-09-10T03:11:00.022Z,0.00
2022-09-10T03:12:00.023Z,0.00
2022-09-10T03:13:00.000Z,0.00
2022-09-10T03:13:59.993Z,0.00
2022-09-10T03:14:59.991Z,0.00
2022-09-10T03:15:59.991Z,0.00
2022-09-10T03:16:59.962Z,0.00
2022-09-10T03:17:59.917Z,0.00
2022-09-10T03:18:59.923Z,0.00
2022-09-10T03:19:59.892Z,0.00
2022-09-10T03:20:59.875Z,0.00
2022-09-10T03:21:59.851Z,0.00
2022-09-10T03:22:59.875Z,0.00
2022-09-10T03:23:59.833Z,0.00
2022-09-10T03:24:59.823Z,0.00
2022-09-10T03:25:59.876Z,0.00
2022-09-10T03:26:59.793Z,0.00
2022-09-10T03:27:59.817Z,0.00
2022-09-10T03:28:59.794Z,0.00
2022-09-10T03:29:59.760Z,0.00
2022-09-10T03:30:59.763Z,0.00
2022-09-10T03:31:59.717Z,0.00
2022-09-10T03:32:59.718Z,0.00
2022-09-10T03:33:59.731Z,0.00
2022-09-10T03:34:59.695Z,0.00
2022-09-10T03:35:59.699Z,0.00
2022-09-10T03:36:59.667Z,0.00
2022-09-10T03:37:59.680Z,0.00
2022-09-10T03:38:59.657Z,0.00
2022-09-10T03:39:59.664Z,0.00
2022-09-10T03:40:59.601Z,0.00
2022-09-10T03:41:59.587Z,0.00
2022-09-10T03:42:59.590Z,0.00
2022-09-10T03:43:59.604Z,0.00
2022-09-10T03:44:59.588Z,0.00
2022-09-10T03:45:59.559Z,0.00
2022-09-10T03:46:59.526Z,0.00
2022-09-10T03:47:59.517Z,0.00
2022-09-10T03:48:59.504Z,0.00
2022-09-10T03:49:59.510Z,0.00
2022-09-10T03:50:59.499Z,0.00
2022-09-10T03:51:59.513Z,0.00
2022-09-10T03:52:59.453Z,0.00
2022-09-10T03:53:59.424Z,0.00
2022-09-10T03:54:59.427Z,0.00
2022-09-10T03:55:59.417Z,0.00
2022-09-10T03:56:59.426Z,0.00
2022-09-10T03:57:59.391Z,0.00
2022-09-10T03:58:59.366Z,0.00
2022-09-10T03:59:59.375Z,0.00
2022-09-10T04:00:59.445Z,0.00
2022-09-10T04:01:59.355Z,0.00
2022-09-10T04:02:59.338Z,0.00
2022-09-10T04:03:59.298Z,0.00
2022-09-10T04:04:59.336Z,0.00
2022-09-10T04:05:59.298Z,0.00
2022-09-10T04:06:59.302Z,0.00
2022-09-10T04:07:59.281Z,0.00
2022-09-10T04:08:59.332Z,0.00
2022-09-10T04:09:59.218Z,0.00
2022-09-10T04:10:59.210Z,0.00
2022-09-10T04:11:59.211Z,0.00
2022-09-10T04:12:59.306Z,0.00
2022-09-10T04:13:59.191Z,0.00
2022-09-10T04:14:59.169Z,0.00
2022-09-10T04:15:59.166Z,0.00
2022-09-10T04:16:59.155Z,0.00
2022-09-10T04:17:59.164Z,0.00
2022-09-10T04:18:59.701Z,0.00
2022-09-10T04:19:59.091Z,0.00
2022-09-10T04:20:59.125Z,0.00
2022-09-10T04:21:59.077Z,0.00
2022-09-10T04:22:59.078Z,0.00
2022-09-10T04:23:59.064Z,0.00
2022-09-10T04:24:59.048Z,0.00
2022-09-10T04:25:59.025Z,0.00
2022-09-10T04:26:59.013Z,0.00
2022-09-10T04:27:58.988Z,0.00
2022-09-10T04:28:58.996Z,0.00
2022-09-10T04:29:58.996Z,0.00
2022-09-10T04:30:58.947Z,0.00
2022-09-10T04:31:58.995Z,0.00
2022-09-10T04:32:58.933Z,0.00
2022-09-10T04:33:58.946Z,0.00
2022-09-10T04:34:58.901Z,0.00
2022-09-10T04:35:58.909Z,0.00
2022-09-10T04:36:58.895Z,0.00
2022-09-10T04:37:58.867Z,0.00
2022-09-10T04:38:58.847Z,0.00
2022-09-10T04:39:58.859Z,0.00
2022-09-10T04:40:58.809Z,0.00
2022-09-10T04:41:58.845Z,0.00
2022-09-10T04:42:58.791Z,0.00
2022-09-10T04:43:58.772Z,0.00
2022-09-10T04:44:58.751Z,0.00
2022-09-10T04:45:58.799Z,0.00
2022-09-10T04:46:58.767Z,0.00
2022-09-10T04:47:58.727Z,0.00
2022-09-10T04:48:59.397Z,0.00
2022-09-10T04:49:58.714Z,0.00
2022-09-10T04:51:15.707Z,0.00
2022-09-10T04:51:58.690Z,0.00
2022-09-10T04:52:58.662Z,0.00
2022-09-10T04:53:58.670Z,0.00
2022-09-10T04:54:58.623Z,0.00
2022-09-10T04:55:58.617Z,0.00
2022-09-10T04:56:58.604Z,0.00
2022-09-10T04:57:58.594Z,0.00
2022-09-10T04:58:58.607Z,0.00
2022-09-10T04:59:58.574Z,0.00
2022-09-10T05:00:58.590Z,0.00
2022-09-10T05:01:58.606Z,0.00
2022-09-10T05:02:58.541Z,0.00
2022-09-10T05:03:58.506Z,0.00
2022-09-10T05:04:58.513Z,4.00
2022-09-10T05:05:58.499Z,4.00
2022-09-10T05:06:58.495Z,0.00
2022-09-10T05:07:58.456Z,0.00
2022-09-10T05:08:58.485Z,0.00
2022-09-10T05:09:58.441Z,4.00
2022-09-10T05:10:58.498Z,4.00
2022-09-10T05:11:58.410Z,4.00
2022-09-10T05:12:58.400Z,4.00
2022-09-10T05:13:58.421Z,4.00
2022-09-10T05:14:58.363Z,4.00
2022-09-10T05:15:58.363Z,4.00
2022-09-10T05:16:58.348Z,0.00
2022-09-10T05:17:58.365Z,4.00
2022-09-10T05:18:58.315Z,4.00
2022-09-10T05:19:58.319Z,8.00
2022-09-10T05:20:58.285Z,4.00
2022-09-10T05:21:58.281Z,4.00
2022-09-10T05:22:58.283Z,4.00
2022-09-10T05:23:58.239Z,4.00
2022-09-10T05:24:58.230Z,8.00
2022-09-10T05:25:58.229Z,8.00
2022-09-10T05:26:58.206Z,4.00
2022-09-10T05:27:58.253Z,4.00
2022-09-10T05:28:58.179Z,4.00
2022-09-10T05:29:58.177Z,4.00
2022-09-10T05:30:58.145Z,4.00
2022-09-10T05:31:58.230Z,8.00
2022-09-10T05:32:58.185Z,8.00
2022-09-10T05:33:58.114Z,8.00
2022-09-10T05:34:58.109Z,12.00
2022-09-10T05:35:58.086Z,8.00
2022-09-10T05:36:58.107Z,8.00
2022-09-10T05:37:58.057Z,12.00
2022-09-10T05:38:58.049Z,12.00
2022-09-10T05:39:58.079Z,12.00
2022-09-10T05:40:58.425Z,12.00
2022-09-10T05:41:58.011Z,8.00
2022-09-10T05:42:58.005Z,8.00
2022-09-10T05:43:58.005Z,12.00
2022-09-10T05:44:57.954Z,12.00
2022-09-10T05:45:58.003Z,12.00
2022-09-10T05:46:57.964Z,12.00
2022-09-10T05:47:57.912Z,12.00
2022-09-10T05:48:57.983Z,12.00
2022-09-10T05:49:57.904Z,8.00
2022-09-10T05:50:57.899Z,8.00
2022-09-10T05:51:57.877Z,12.00
2022-09-10T05:52:57.851Z,12.00
2022-09-10T05:53:57.861Z,16.00
2022-09-10T05:54:57.839Z,16.00
2022-09-10T05:55:57.832Z,20.00
2022-09-10T05:56:57.862Z,16.00
2022-09-10T05:57:57.793Z,12.00
2022-09-10T05:58:57.777Z,12.00
2022-09-10T05:59:57.888Z,12.00
2022-09-10T06:00:57.768Z,12.00
2022-09-10T06:01:57.822Z,24.00
2022-09-10T06:02:57.832Z,28.00
2022-09-10T06:03:57.717Z,28.00
2022-09-10T06:04:57.699Z,28.00
2022-09-10T06:05:57.731Z,28.00
2022-09-10T06:06:57.732Z,28.00
2022-09-10T06:07:57.661Z,24.00
2022-09-10T06:08:57.665Z,20.00
2022-09-10T06:09:57.673Z,20.00
2022-09-10T06:10:57.631Z,20.00
2022-09-10T06:11:57.637Z,28.00
2022-09-10T06:12:57.591Z,32.00
2022-09-10T06:13:57.575Z,28.00
2022-09-10T06:14:57.566Z,24.00
2022-09-10T06:15:57.547Z,24.00
2022-09-10T06:16:57.563Z,20.00
2022-09-10T06:17:57.536Z,16.00
2022-09-10T06:18:57.540Z,16.00
2022-09-10T06:19:57.497Z,12.00
2022-09-10T06:20:57.480Z,16.00
2022-09-10T06:21:57.481Z,8.00
2022-09-10T06:22:57.460Z,12.00
2022-09-10T06:23:57.461Z,12.00
2022-09-10T06:24:57.444Z,12.00
2022-09-10T06:25:57.419Z,16.00
2022-09-10T06:26:57.435Z,16.00
2022-09-10T06:27:57.393Z,20.00
2022-09-10T06:28:57.380Z,24.00
2022-09-10T06:29:57.387Z,24.00
2022-09-10T06:30:57.390Z,20.00
2022-09-10T06:31:57.333Z,20.00
2022-09-10T06:32:57.324Z,28.00
2022-09-10T06:33:57.350Z,28.00
2022-09-10T06:34:57.312Z,32.00
2022-09-10T06:35:57.291Z,36.00
2022-09-10T06:36:57.271Z,32.00
2022-09-10T06:37:57.281Z,32.00
2022-09-10T06:38:57.253Z,32.00
2022-09-10T06:39:57.307Z,40.00
2022-09-10T06:40:57.248Z,44.00
2022-09-10T06:41:57.228Z,44.00
2022-09-10T06:42:57.195Z,36.00
2022-09-10T06:43:57.199Z,36.00
2022-09-10T06:44:57.189Z,36.00
2022-09-10T06:45:57.182Z,36.00
2022-09-10T06:47:46.227Z,40.00
2022-09-10T06:48:40.613Z,40.00
2022-09-10T06:48:57.253Z,44.00
2022-09-10T06:49:57.134Z,40.00
2022-09-10T06:50:57.082Z,44.00
2022-09-10T06:51:57.065Z,52.00
2022-09-10T06:52:57.086Z,52.00
2022-09-10T06:53:57.039Z,48.00
2022-09-10T06:54:57.108Z,44.00
2022-09-10T06:55:57.022Z,60.00
2022-09-10T06:56:57.033Z,96.00
2022-09-10T06:57:57.011Z,108.00
2022-09-10T06:59:00.380Z,120.00
2022-09-10T06:59:56.997Z,132.00
2022-09-10T07:00:57.008Z,140.00
2022-09-10T07:01:57.026Z,148.00
2022-09-10T07:02:56.933Z,152.00
2022-09-10T07:03:56.921Z,164.00
2022-09-10T07:04:56.903Z,172.00
2022-09-10T07:05:56.884Z,180.00
2022-09-10T07:06:56.898Z,160.00
2022-09-10T07:07:56.943Z,148.00
2022-09-10T07:08:56.865Z,128.00
2022-09-10T07:09:56.834Z,132.00
2022-09-10T07:10:56.839Z,132.00
2022-09-10T07:11:56.820Z,180.00
2022-09-10T07:12:56.897Z,212.00
2022-09-10T07:13:56.815Z,200.00
2022-09-10T07:14:56.855Z,192.00
2022-09-10T07:15:56.819Z,136.00
2022-09-10T07:16:56.753Z,112.00
2022-09-10T07:17:56.773Z,132.00
2022-09-10T07:18:56.737Z,140.00
2022-09-10T07:19:56.742Z,124.00
2022-09-10T07:20:56.693Z,116.00
2022-09-10T07:21:56.685Z,120.00
2022-09-10T07:22:56.670Z,128.00
2022-09-10T07:23:56.676Z,112.00
2022-09-10T07:24:56.673Z,112.00
2022-09-10T07:25:56.624Z,108.00
2022-09-10T07:26:56.623Z,108.00
2022-09-10T07:27:56.631Z,92.00
2022-09-10T07:28:56.588Z,72.00
2022-09-10T07:29:56.591Z,60.00
2022-09-10T07:30:56.610Z,52.00
2022-09-10T07:31:56.648Z,52.00
2022-09-10T07:32:56.526Z,48.00
2022-09-10T07:33:56.587Z,56.00
2022-09-10T07:34:56.493Z,52.00
2022-09-10T07:35:56.513Z,48.00
2022-09-10T07:36:56.498Z,48.00
2022-09-10T07:37:56.465Z,48.00
2022-09-10T07:38:56.462Z,56.00
2022-09-10T07:39:56.530Z,52.00
2022-09-10T07:40:56.427Z,60.00
2022-09-10T07:41:56.414Z,52.00
2022-09-10T07:42:56.397Z,56.00
2022-09-10T07:43:56.398Z,84.00
2022-09-10T07:44:56.374Z,88.00
2022-09-10T07:45:57.626Z,80.00
2022-09-10T07:46:56.328Z,64.00
2022-09-10T07:47:56.323Z,56.00
2022-09-10T07:48:56.346Z,48.00
2022-09-10T07:49:56.314Z,52.00
2022-09-10T07:50:56.292Z,48.00
2022-09-10T07:51:59.797Z,60.00
2022-09-10T07:52:57.184Z,68.00
2022-09-10T07:53:56.275Z,88.00
2022-09-10T07:54:56.221Z,88.00
2022-09-10T07:55:56.253Z,84.00
2022-09-10T07:56:56.206Z,112.00
2022-09-10T07:57:59.528Z,116.00
2022-09-10T07:58:56.169Z,92.00
2022-09-10T07:59:56.197Z,80.00
2022-09-10T08:00:56.154Z,88.00
2022-09-10T08:01:56.202Z,76.00
2022-09-10T08:02:56.148Z,88.00
2022-09-10T08:03:56.118Z,84.00
2022-09-10T08:04:56.175Z,76.00
2022-09-10T08:05:56.089Z,88.00
2022-09-10T08:06:56.083Z,108.00
2022-09-10T08:07:56.058Z,92.00
2022-09-10T08:08:56.068Z,76.00
2022-09-10T08:09:56.041Z,88.00
2022-09-10T08:10:56.048Z,100.00
2022-09-10T08:11:56.058Z,80.00
2022-09-10T08:12:56.001Z,84.00
2022-09-10T08:13:55.994Z,96.00
2022-09-10T08:14:55.965Z,108.00
2022-09-10T08:15:55.993Z,136.00
2022-09-10T08:16:56.002Z,156.00
2022-09-10T08:17:55.936Z,152.00
2022-09-10T08:18:55.908Z,168.00
2022-09-10T08:19:55.965Z,188.00
2022-09-10T08:20:55.904Z,188.00
2022-09-10T08:21:55.908Z,192.00
2022-09-10T08:22:55.870Z,192.00
2022-09-10T08:23:55.877Z,184.00
2022-09-10T08:24:55.886Z,164.00
2022-09-10T08:25:55.818Z,172.00
2022-09-10T08:26:55.842Z,148.00
2022-09-10T08:27:55.808Z,116.00
2022-09-10T08:28:55.780Z,88.00
2022-09-10T08:29:55.807Z,60.00
2022-09-10T08:30:55.821Z,60.00
2022-09-10T08:31:55.754Z,56.00
2022-09-10T08:32:55.757Z,80.00
2022-09-10T08:33:55.728Z,76.00
2022-09-10T08:34:55.770Z,56.00
2022-09-10T08:35:55.711Z,36.00
2022-09-10T08:36:55.690Z,28.00
2022-09-10T08:37:55.666Z,36.00
2022-09-10T08:39:00.753Z,48.00
2022-09-10T08:39:55.682Z,52.00
2022-09-10T08:40:55.659Z,60.00
2022-09-10T08:41:55.627Z,64.00
2022-09-10T08:42:55.658Z,104.00
2022-09-10T08:43:55.598Z,96.00
2022-09-10T08:44:55.600Z,112.00
2022-09-10T08:45:55.598Z,124.00
2022-09-10T08:46:55.572Z,188.00
2022-09-10T08:47:55.537Z,284.00
2022-09-10T08:48:55.527Z,776.00
2022-09-10T08:49:55.498Z,840.00
2022-09-10T08:50:55.494Z,404.00
2022-09-10T08:51:55.509Z,360.00
2022-09-10T08:52:55.487Z,424.00
2022-09-10T08:53:55.454Z,604.00
2022-09-10T08:54:55.473Z,840.00
2022-09-10T08:55:55.409Z,948.00
2022-09-10T08:56:55.402Z,520.00
2022-09-10T08:57:55.421Z,484.00
2022-09-10T08:58:55.600Z,564.00
2022-09-10T08:59:55.396Z,456.00
2022-09-10T09:00:55.357Z,636.00
2022-09-10T09:01:55.453Z,1152.00
2022-09-10T09:02:55.398Z,1028.00
2022-09-10T09:03:55.340Z,1124.00
2022-09-10T09:04:55.295Z,704.00
2022-09-10T09:05:55.283Z,580.00
2022-09-10T09:06:55.334Z,600.00
2022-09-10T09:07:55.248Z,620.00
2022-09-10T09:08:55.271Z,644.00
2022-09-10T09:09:55.252Z,728.00
2022-09-10T09:10:55.207Z,508.00
2022-09-10T09:11:55.888Z,1104.00
2022-09-10T09:12:55.197Z,680.00
2022-09-10T09:13:55.193Z,888.00
2022-09-10T09:14:55.191Z,964.00
2022-09-10T09:15:55.216Z,1112.00
2022-09-10T09:16:55.149Z,1152.00
2022-09-10T09:17:55.125Z,752.00
2022-09-10T09:18:55.119Z,632.00
2022-09-10T09:19:55.126Z,952.00
2022-09-10T09:20:55.090Z,572.00
2022-09-10T09:21:55.139Z,796.00
2022-09-10T09:22:55.069Z,892.00
2022-09-10T09:24:12.181Z,324.00
2022-09-10T09:24:55.048Z,344.00
2022-09-10T09:25:55.021Z,332.00
2022-09-10T09:26:55.021Z,392.00
2022-09-10T09:27:55.026Z,444.00
2022-09-10T09:28:55.064Z,988.00
2022-09-10T09:29:54.992Z,572.00
2022-09-10T09:30:54.982Z,700.00
2022-09-10T09:31:54.943Z,692.00
2022-09-10T09:32:54.966Z,968.00
2022-09-10T09:33:54.964Z,848.00
2022-09-10T09:34:55.019Z,732.00
2022-09-10T09:35:54.929Z,360.00
2022-09-10T09:36:54.901Z,500.00
2022-09-10T09:37:54.864Z,888.00
2022-09-10T09:38:54.937Z,432.00
2022-09-10T09:39:54.875Z,424.00
2022-09-10T09:40:54.874Z,528.00
2022-09-10T09:41:54.835Z,260.00
2022-09-10T09:42:54.815Z,192.00
2022-09-10T09:43:54.809Z,156.00
2022-09-10T09:44:57.169Z,168.00
2022-09-10T09:45:54.824Z,224.00
2022-09-10T09:46:54.771Z,572.00
2022-09-10T09:47:54.746Z,408.00
2022-09-10T09:48:54.821Z,592.00
2022-09-10T09:49:54.713Z,324.00
2022-09-10T09:50:54.684Z,236.00
2022-09-10T09:51:54.677Z,268.00
2022-09-10T09:52:54.688Z,196.00
2022-09-10T09:54:18.502Z,124.00
2022-09-10T09:55:13.872Z,108.00
2022-09-10T09:55:54.630Z,120.00
2022-09-10T09:56:54.634Z,104.00
2022-09-10T09:57:55.189Z,76.00
2022-09-10T09:58:54.592Z,80.00
2022-09-10T09:59:54.630Z,72.00
2022-09-10T10:00:54.565Z,88.00
2022-09-10T10:01:54.624Z,96.00
2022-09-10T10:02:54.538Z,92.00
2022-09-10T10:03:54.531Z,100.00
2022-09-10T10:04:54.541Z,104.00
2022-09-10T10:05:54.541Z,104.00
2022-09-10T10:06:54.487Z,104.00
2022-09-10T10:07:54.474Z,116.00
2022-09-10T10:08:54.467Z,116.00
2022-09-10T10:09:54.451Z,120.00
2022-09-10T10:10:54.439Z,128.00
2022-09-10T10:11:54.452Z,196.00
2022-09-10T10:12:54.403Z,208.00
2022-09-10T10:13:54.419Z,316.00
2022-09-10T10:14:54.437Z,396.00
2022-09-10T10:15:54.421Z,428.00
2022-09-10T10:16:57.413Z,456.00
2022-09-10T10:17:54.326Z,356.00
2022-09-10T10:18:54.332Z,272.00
2022-09-10T10:19:54.316Z,296.00
2022-09-10T10:20:54.368Z,240.00
2022-09-10T10:21:54.288Z,268.00
2022-09-10T10:22:54.292Z,340.00
2022-09-10T10:23:54.256Z,336.00
2022-09-10T10:24:54.279Z,276.00
2022-09-10T10:25:54.284Z,284.00
2022-09-10T10:26:54.239Z,276.00
2022-09-10T10:27:54.267Z,284.00
2022-09-10T10:28:54.282Z,304.00
2022-09-10T10:29:54.179Z,376.00
2022-09-10T10:30:54.275Z,288.00
2022-09-10T10:31:54.134Z,272.00
2022-09-10T10:32:54.184Z,300.00
2022-09-10T10:33:54.128Z,308.00
2022-09-10T10:34:54.219Z,352.00
2022-09-10T10:35:54.153Z,364.00
2022-09-10T10:36:54.074Z,364.00
2022-09-10T10:37:54.060Z,360.00
2022-09-10T10:38:54.048Z,356.00
2022-09-10T10:39:54.074Z,300.00
2022-09-10T10:40:54.040Z,352.00
2022-09-10T10:41:54.003Z,340.00
2022-09-10T10:42:53.997Z,296.00
2022-09-10T10:43:53.964Z,232.00
2022-09-10T10:44:53.973Z,216.00
2022-09-10T10:45:54.002Z,200.00
2022-09-10T10:46:53.958Z,168.00
2022-09-10T10:47:53.933Z,144.00
2022-09-10T10:48:57.756Z,120.00
2022-09-10T10:49:53.907Z,128.00
2022-09-10T10:50:54.011Z,128.00
2022-09-10T10:51:53.906Z,112.00
2022-09-10T10:52:53.862Z,104.00
2022-09-10T10:53:53.862Z,100.00
2022-09-10T10:54:53.838Z,104.00
2022-09-10T10:55:53.830Z,132.00
2022-09-10T10:56:53.826Z,208.00
2022-09-10T10:57:53.801Z,216.00
2022-09-10T10:58:54.627Z,208.00
2022-09-10T10:59:53.804Z,200.00
2022-09-10T11:00:53.776Z,176.00
2022-09-10T11:01:53.891Z,176.00
2022-09-10T11:02:53.714Z,188.00
2022-09-10T11:03:53.715Z,204.00
2022-09-10T11:04:53.712Z,188.00
2022-09-10T11:05:53.809Z,184.00
2022-09-10T11:06:53.686Z,196.00
2022-09-10T11:07:53.825Z,216.00
2022-09-10T11:08:53.635Z,216.00
2022-09-10T11:09:53.660Z,204.00
2022-09-10T11:10:53.656Z,212.00
2022-09-10T11:11:53.633Z,216.00
2022-09-10T11:12:53.593Z,256.00
2022-09-10T11:13:53.622Z,308.00
2022-09-10T11:14:53.601Z,368.00
2022-09-10T11:15:53.629Z,396.00
2022-09-10T11:16:57.953Z,428.00
2022-09-10T11:17:53.555Z,360.00
2022-09-10T11:18:53.538Z,336.00
2022-09-10T11:20:11.221Z,296.00
2022-09-10T11:20:53.543Z,356.00
2022-09-10T11:21:53.483Z,376.00
2022-09-10T11:22:53.499Z,340.00
2022-09-10T11:23:53.445Z,388.00
2022-09-10T11:24:53.445Z,408.00
2022-09-10T11:25:53.431Z,368.00
2022-09-10T11:26:53.400Z,268.00
2022-09-10T11:27:53.418Z,316.00
2022-09-10T11:28:53.370Z,292.00
2022-09-10T11:29:54.165Z,292.00
2022-09-10T11:30:53.561Z,256.00
2022-09-10T11:31:53.344Z,236.00
2022-09-10T11:32:53.332Z,224.00
2022-09-10T11:33:53.355Z,264.00
2022-09-10T11:34:53.290Z,268.00
2022-09-10T11:35:53.281Z,324.00
2022-09-10T11:36:53.276Z,436.00
2022-09-10T11:37:53.281Z,372.00
2022-09-10T11:38:53.243Z,396.00
2022-09-10T11:39:53.333Z,308.00
2022-09-10T11:40:53.246Z,280.00
2022-09-10T11:41:53.226Z,276.00
2022-09-10T11:42:53.193Z,272.00
2022-09-10T11:43:53.227Z,268.00
2022-09-10T11:44:53.182Z,224.00
2022-09-10T11:45:53.310Z,184.00
2022-09-10T11:46:53.151Z,172.00
2022-09-10T11:47:53.150Z,204.00
2022-09-10T11:48:53.113Z,184.00
2022-09-10T11:49:53.087Z,156.00
2022-09-10T11:50:53.109Z,136.00
2022-09-10T11:51:53.093Z,152.00
2022-09-10T11:52:53.220Z,164.00
2022-09-10T11:53:53.197Z,172.00
2022-09-10T11:54:53.176Z,168.00
2022-09-10T11:55:53.209Z,168.00
2022-09-10T11:56:53.243Z,176.00
2022-09-10T11:57:53.006Z,208.00
2022-09-10T11:58:53.008Z,252.00
2022-09-10T11:59:52.989Z,264.00
2022-09-10T12:00:52.984Z,260.00
2022-09-10T12:01:52.988Z,240.00
2022-09-10T12:02:53.282Z,212.00
2022-09-10T12:03:53.034Z,232.00
2022-09-10T12:04:52.898Z,216.00
2022-09-10T12:05:52.885Z,212.00
2022-09-10T12:06:52.864Z,212.00
2022-09-10T12:07:52.904Z,236.00
2022-09-10T12:08:52.843Z,244.00
2022-09-10T12:09:52.837Z,260.00
2022-09-10T12:10:52.831Z,236.00
2022-09-10T12:11:52.796Z,228.00
2022-09-10T12:12:52.842Z,212.00
2022-09-10T12:13:52.768Z,196.00
2022-09-10T12:14:52.829Z,172.00
2022-09-10T12:15:52.778Z,136.00
2022-09-10T12:16:52.773Z,116.00
2022-09-10T12:17:52.731Z,108.00
2022-09-10T12:18:52.754Z,96.00
2022-09-10T12:19:52.715Z,88.00
2022-09-10T12:20:52.692Z,96.00
2022-09-10T12:21:52.683Z,96.00
2022-09-10T12:22:52.648Z,92.00
2022-09-10T12:23:52.671Z,84.00
2022-09-10T12:24:52.626Z,80.00
2022-09-10T12:25:52.623Z,72.00
2022-09-10T12:26:52.599Z,60.00
2022-09-10T12:27:52.591Z,56.00
2022-09-10T12:28:52.603Z,60.00
2022-09-10T12:29:52.566Z,68.00
2022-09-10T12:30:52.579Z,88.00
2022-09-10T12:31:52.565Z,108.00
2022-09-10T12:32:52.514Z,140.00
2022-09-10T12:33:52.551Z,148.00
2022-09-10T12:34:52.507Z,164.00
2022-09-10T12:35:53.390Z,152.00
2022-09-10T12:36:52.481Z,124.00
2022-09-10T12:37:52.508Z,112.00
2022-09-10T12:38:52.451Z,124.00
2022-09-10T12:39:52.506Z,132.00
2022-09-10T12:40:52.445Z,116.00
2022-09-10T12:41:52.409Z,100.00
2022-09-10T12:42:52.376Z,96.00
2022-09-10T12:43:52.387Z,84.00
2022-09-10T12:44:52.417Z,76.00
2022-09-10T12:45:52.434Z,80.00
2022-09-10T12:46:52.351Z,88.00
2022-09-10T12:47:52.326Z,88.00
2022-09-10T12:48:52.629Z,96.00
2022-09-10T12:49:52.311Z,92.00
2022-09-10T12:50:52.307Z,84.00
2022-09-10T12:51:52.318Z,92.00
2022-09-10T12:52:52.291Z,88.00
2022-09-10T12:53:52.312Z,96.00